Nestor — V2FB3 — position and weather

sailwx.info

Track history (hours):
 
Tides and Currents Weather Stations Pressure Air Temp Water Temp Dewpoint Dewpoint Depression Visibility Wind Speed Wind Dir Waves Ship Positions

Nestor

Last reported at 2014-Oct-31 18:03 UTC. Time now 2014-Nov-01 03:58 UTC.
Position N 53°34' W 003°32'.

Length 88 m; draft 3.5 m.

Type: Ship. MMSI: 305620000.

Date/timePositionNaut miles runAvg speedWind from/ knotsBaromVisibWave heightAir tempDewpointWater temp
2014-Oct-31 18:03N 53°34' W 003°32'4 8.3
2014-Oct-31 17:31N 53°33' W 003°25'8 7.9
2014-Oct-31 16:33N 53°31' W 003°12'9 8.8
2014-Oct-31 15:33N 53°26' W 003°01'2 1.4
2014-Oct-31 14:29N 53°24' W 003°01'0 0.4
2014-Oct-31 13:29N 53°24' W 003°02'0 0.0
2014-Oct-31 12:29N 53°24' W 003°02'0 0.0
2014-Oct-31 11:29N 53°24' W 003°02'0 0.0
2014-Oct-31 10:29N 53°24' W 003°02'0 0.0
2014-Oct-31 09:23N 53°24' W 003°02'0 0.0
2014-Oct-31 08:23N 53°24' W 003°02'0 0.0
2014-Oct-31 07:29N 53°24' W 003°02'0 0.0
2014-Oct-31 06:17N 53°24' W 003°02'0 0.0
2014-Oct-31 05:29N 53°24' W 003°02'0 0.0
2014-Oct-31 04:29N 53°24' W 003°02'0 0.0
2014-Oct-31 03:23N 53°24' W 003°02'0 0.0
2014-Oct-31 02:29N 53°24' W 003°02'0 0.0
2014-Oct-31 01:29N 53°24' W 003°02'0 0.0
2014-Oct-31 00:11N 53°24' W 003°02'0 0.0
2014-Oct-30 23:29N 53°24' W 003°02'0 0.0
2014-Oct-30 22:23N 53°24' W 003°02'0 0.0
2014-Oct-30 21:29N 53°24' W 003°02'0 0.0
2014-Oct-30 20:29N 53°24' W 003°02'0 0.0
2014-Oct-30 19:29N 53°24' W 003°02'0 0.0
2014-Oct-30 18:29N 53°24' W 003°02'0 0.0
2014-Oct-30 17:29N 53°24' W 003°02'0 0.0
2014-Oct-30 16:29N 53°24' W 003°02'0 0.0
2014-Oct-30 15:29N 53°24' W 003°02'0 0.0
2014-Oct-30 14:29N 53°24' W 003°02'0 0.0
2014-Oct-30 13:29N 53°24' W 003°02'0 0.0
2014-Oct-30 12:29N 53°24' W 003°02'0 0.0
2014-Oct-30 11:29N 53°24' W 003°02'0 0.0
2014-Oct-30 10:29N 53°24' W 003°02'0 0.0
2014-Oct-30 09:29N 53°24' W 003°02'0 0.0
2014-Oct-30 08:29N 53°24' W 003°02'0 0.0
2014-Oct-30 07:29N 53°24' W 003°02'0 0.0
2014-Oct-30 06:29N 53°24' W 003°02'0 0.0
2014-Oct-30 05:29N 53°24' W 003°02'0 0.0
2014-Oct-30 04:29N 53°24' W 003°02'0 0.0
2014-Oct-30 03:29N 53°24' W 003°02'0 0.0
2014-Oct-30 02:29N 53°24' W 003°02'0 0.0
2014-Oct-30 01:29N 53°24' W 003°02'0 0.0
2014-Oct-30 00:23N 53°24' W 003°02'0 0.0
2014-Oct-29 23:29N 53°24' W 003°02'0 0.0
2014-Oct-29 22:29N 53°24' W 003°02'0 0.0
2014-Oct-29 21:29N 53°24' W 003°02'0 0.0
2014-Oct-29 20:23N 53°24' W 003°02'0 0.0
2014-Oct-29 19:29N 53°24' W 003°02'0 0.0
2014-Oct-29 18:29N 53°24' W 003°02'0 0.0
2014-Oct-29 17:29N 53°24' W 003°02'0 0.0
2014-Oct-29 16:23N 53°24' W 003°02'0 0.0
2014-Oct-29 15:29N 53°24' W 003°02'0 0.0
2014-Oct-29 14:29N 53°24' W 003°02'0 0.0
2014-Oct-29 13:29N 53°24' W 003°02'0 0.0
2014-Oct-29 12:11N 53°24' W 003°02'0 0.0
2014-Oct-29 11:23N 53°24' W 003°02'0 0.0
2014-Oct-29 10:29N 53°24' W 003°02'0 0.0
2014-Oct-29 09:29N 53°24' W 003°02'0 0.0
2014-Oct-29 08:29N 53°24' W 003°02'0 0.0
2014-Oct-29 07:29N 53°24' W 003°02'0 0.0
2014-Oct-29 06:29N 53°24' W 003°02'0 0.0
2014-Oct-29 05:29N 53°24' W 003°02'0 0.0
2014-Oct-29 04:17N 53°24' W 003°02'0 0.0
2014-Oct-29 03:29N 53°24' W 003°02'0 0.0
2014-Oct-29 02:29N 53°24' W 003°02'0 0.0
2014-Oct-29 01:29N 53°24' W 003°02'0 0.0
2014-Oct-29 00:29N 53°24' W 003°02'0 0.0
2014-Oct-28 23:17N 53°24' W 003°02'0 0.0
2014-Oct-28 22:29N 53°24' W 003°02'0 0.0
2014-Oct-28 21:29N 53°24' W 003°02'0 0.0
2014-Oct-28 20:17N 53°24' W 003°02'0 0.0
2014-Oct-28 19:29N 53°24' W 003°02'0 0.0
2014-Oct-28 18:29N 53°24' W 003°02'0 0.0
2014-Oct-28 17:23N 53°24' W 003°02'0 0.0
2014-Oct-28 16:23N 53°24' W 003°02'0 0.0
2014-Oct-28 15:29N 53°24' W 003°02'0 0.0
2014-Oct-28 14:29N 53°24' W 003°02'0 0.5
2014-Oct-28 13:33N 53°24' W 003°01'1 0.8
2014-Oct-28 12:33N 53°25' W 003°01'9 9.2
2014-Oct-28 11:33N 53°31' W 003°12'  
2014-Oct-24 20:07N 44°12' W 008°13'5 7.3
2014-Oct-24 19:23N 44°07' W 008°15'6 7.5
2014-Oct-24 18:33N 44°01' W 008°17'  
Track history (hours):
 
Tides and Currents Weather Stations Pressure Air Temp Water Temp Dewpoint Dewpoint Depression Visibility Wind Speed Wind Dir Waves Ship Positions

Nestor

Last reported at 2014-Oct-31 18:03 UTC. Time now 2014-Nov-01 03:58 UTC.
Position N 53°34' W 003°32'.

Length 88 m; draft 3.5 m.

Type: Ship. MMSI: 305620000.

Date/timePositionNaut miles runAvg speedWind from/ knotsBaromVisibWave heightAir tempDewpointWater temp
2014-Oct-31 18:03N 53°34' W 003°32'4 8.3
2014-Oct-31 17:31N 53°33' W 003°25'8 7.9
2014-Oct-31 16:33N 53°31' W 003°12'9 8.8
2014-Oct-31 15:33N 53°26' W 003°01'2 1.4
2014-Oct-31 14:29N 53°24' W 003°01'0 0.4
2014-Oct-31 13:29N 53°24' W 003°02'0 0.0
2014-Oct-31 12:29N 53°24' W 003°02'0 0.0
2014-Oct-31 11:29N 53°24' W 003°02'0 0.0
2014-Oct-31 10:29N 53°24' W 003°02'0 0.0
2014-Oct-31 09:23N 53°24' W 003°02'0 0.0
2014-Oct-31 08:23N 53°24' W 003°02'0 0.0
2014-Oct-31 07:29N 53°24' W 003°02'0 0.0
2014-Oct-31 06:17N 53°24' W 003°02'0 0.0
2014-Oct-31 05:29N 53°24' W 003°02'0 0.0
2014-Oct-31 04:29N 53°24' W 003°02'0 0.0
2014-Oct-31 03:23N 53°24' W 003°02'0 0.0
2014-Oct-31 02:29N 53°24' W 003°02'0 0.0
2014-Oct-31 01:29N 53°24' W 003°02'0 0.0
2014-Oct-31 00:11N 53°24' W 003°02'0 0.0
2014-Oct-30 23:29N 53°24' W 003°02'0 0.0
2014-Oct-30 22:23N 53°24' W 003°02'0 0.0
2014-Oct-30 21:29N 53°24' W 003°02'0 0.0
2014-Oct-30 20:29N 53°24' W 003°02'0 0.0
2014-Oct-30 19:29N 53°24' W 003°02'0 0.0
2014-Oct-30 18:29N 53°24' W 003°02'0 0.0
2014-Oct-30 17:29N 53°24' W 003°02'0 0.0
2014-Oct-30 16:29N 53°24' W 003°02'0 0.0
2014-Oct-30 15:29N 53°24' W 003°02'0 0.0
2014-Oct-30 14:29N 53°24' W 003°02'0 0.0
2014-Oct-30 13:29N 53°24' W 003°02'0 0.0
2014-Oct-30 12:29N 53°24' W 003°02'0 0.0
2014-Oct-30 11:29N 53°24' W 003°02'0 0.0
2014-Oct-30 10:29N 53°24' W 003°02'0 0.0
2014-Oct-30 09:29N 53°24' W 003°02'0 0.0
2014-Oct-30 08:29N 53°24' W 003°02'0 0.0
2014-Oct-30 07:29N 53°24' W 003°02'0 0.0
2014-Oct-30 06:29N 53°24' W 003°02'0 0.0
2014-Oct-30 05:29N 53°24' W 003°02'0 0.0
2014-Oct-30 04:29N 53°24' W 003°02'0 0.0
2014-Oct-30 03:29N 53°24' W 003°02'0 0.0
2014-Oct-30 02:29N 53°24' W 003°02'0 0.0
2014-Oct-30 01:29N 53°24' W 003°02'0 0.0
2014-Oct-30 00:23N 53°24' W 003°02'0 0.0
2014-Oct-29 23:29N 53°24' W 003°02'0 0.0
2014-Oct-29 22:29N 53°24' W 003°02'0 0.0
2014-Oct-29 21:29N 53°24' W 003°02'0 0.0
2014-Oct-29 20:23N 53°24' W 003°02'0 0.0
2014-Oct-29 19:29N 53°24' W 003°02'0 0.0
2014-Oct-29 18:29N 53°24' W 003°02'0 0.0
2014-Oct-29 17:29N 53°24' W 003°02'0 0.0
2014-Oct-29 16:23N 53°24' W 003°02'0 0.0
2014-Oct-29 15:29N 53°24' W 003°02'0 0.0
2014-Oct-29 14:29N 53°24' W 003°02'0 0.0
2014-Oct-29 13:29N 53°24' W 003°02'0 0.0
2014-Oct-29 12:11N 53°24' W 003°02'0 0.0
2014-Oct-29 11:23N 53°24' W 003°02'0 0.0
2014-Oct-29 10:29N 53°24' W 003°02'0 0.0
2014-Oct-29 09:29N 53°24' W 003°02'0 0.0
2014-Oct-29 08:29N 53°24' W 003°02'0 0.0
2014-Oct-29 07:29N 53°24' W 003°02'0 0.0
2014-Oct-29 06:29N 53°24' W 003°02'0 0.0
2014-Oct-29 05:29N 53°24' W 003°02'0 0.0
2014-Oct-29 04:17N 53°24' W 003°02'0 0.0
2014-Oct-29 03:29N 53°24' W 003°02'0 0.0
2014-Oct-29 02:29N 53°24' W 003°02'0 0.0
2014-Oct-29 01:29N 53°24' W 003°02'0 0.0
2014-Oct-29 00:29N 53°24' W 003°02'0 0.0
2014-Oct-28 23:17N 53°24' W 003°02'0 0.0
2014-Oct-28 22:29N 53°24' W 003°02'0 0.0
2014-Oct-28 21:29N 53°24' W 003°02'0 0.0
2014-Oct-28 20:17N 53°24' W 003°02'0 0.0
2014-Oct-28 19:29N 53°24' W 003°02'0 0.0
2014-Oct-28 18:29N 53°24' W 003°02'0 0.0
2014-Oct-28 17:23N 53°24' W 003°02'0 0.0
2014-Oct-28 16:23N 53°24' W 003°02'0 0.0
2014-Oct-28 15:29N 53°24' W 003°02'0 0.0
2014-Oct-28 14:29N 53°24' W 003°02'0 0.5
2014-Oct-28 13:33N 53°24' W 003°01'1 0.8
2014-Oct-28 12:33N 53°25' W 003°01'9 9.2
2014-Oct-28 11:33N 53°31' W 003°12'  
2014-Oct-24 20:07N 44°12' W 008°13'5 7.3
2014-Oct-24 19:23N 44°07' W 008°15'6 7.5
2014-Oct-24 18:33N 44°01' W 008°17'  

Dump ship's entire track history